Date,TemperatureHighF,TemperatureAvgF,TemperatureLowF,DewpointHighF,DewpointAvgF,DewpointLowF,HumidityHigh,HumidityAvg,HumidityLow,PressureMaxIn,PressureMinIn,WindSpeedMaxMPH,WindSpeedAvgMPH,GustSpeedMaxMPH,PrecipitationSumIn
2012-1-1,44.5,35.7,30.3,41.3,30.8,-99.9,100,92,77,30.04,29.58,4,-35,4,0.11
2012-1-2,40.8,34.9,29.7,40.8,27.2,13.3,100,75,51,29.67,29.49,10,1,10,0.02
2012-1-3,29.7,16.5,7.2,15.0,-7.4,-99.9,68,48,42,30.05,29.66,8,-86,8,0.00
2012-1-4,22.5,13.8,4.3,6.2,-1.0,-6.2,65,52,36,30.12,29.87,8,0,8,0.00
2012-1-5,33.2,26.0,19.7,23.6,14.9,5.2,74,63,47,29.90,29.71,7,0,7,0.00
2012-1-6,30.7,24.7,18.1,23.3,19.3,11.6,87,80,72,29.90,29.73,2,0,2,0.01
2012-1-7,40.1,32.9,27.0,30.5,27.2,22.3,94,80,64,29.85,29.64,4,0,4,0.00
2012-1-8,38.0,32.0,23.2,27.4,22.3,13.9,88,68,53,30.27,29.85,9,1,9,0.00
2012-1-9,34.4,24.2,16.7,17.3,14.5,11.5,82,67,43,30.30,29.94,4,0,4,0.00
2012-1-10,41.3,30.6,21.3,28.0,22.6,16.7,89,72,55,29.94,29.73,7,0,7,0.00
2012-1-11,34.6,28.4,19.7,23.4,18.8,14.8,85,68,51,30.13,29.93,7,0,7,0.00
2012-1-12,30.3,28.7,27.0,28.6,26.8,23.4,96,92,77,30.09,29.56,8,0,8,0.00
2012-1-13,33.4,29.2,25.8,32.6,26.6,20.0,98,90,74,29.56,29.12,13,1,13,0.04
2012-1-14,29.7,22.0,5.6,24.0,13.1,-3.3,80,68,55,30.05,29.48,9,1,9,0.00
2012-1-15,9.9,3.7,-3.1,-2.7,-6.6,-10.8,71,62,51,30.52,30.05,10,0,10,0.00
2012-1-16,29.5,14.3,-3.7,21.4,2.6,-9.6,82,61,36,30.58,30.06,10,0,10,0.00
2012-1-17,37.3,29.5,27.3,33.9,18.6,-99.9,98,81,71,30.07,29.38,8,-85,8,0.32
2012-1-18,39.1,24.2,10.4,38.5,2.8,-99.9,100,53,43,30.16,29.34,16,-88,16,0.09
2012-1-19,25.3,15.7,2.2,20.5,7.7,-3.4,90,71,52,30.32,29.95,8,0,8,0.00
2012-1-20,23.8,17.5,9.7,20.8,9.7,1.3,93,72,49,30.29,29.91,9,0,9,0.00
2012-1-21,17.3,12.9,3.4,11.3,5.6,-1.7,81,73,55,30.37,30.16,2,0,2,0.00
2012-1-22,24.5,8.9,-6.1,11.9,1.6,-12.2,86,73,50,30.61,30.38,1,0,1,0.00
2012-1-23,32.1,24.8,14.6,31.6,22.5,10.6,98,91,84,30.52,29.85,2,0,2,0.00
2012-1-24,43.9,34.9,31.8,42.1,30.9,-99.9,100,90,73,30.00,29.83,9,-10,9,0.46
2012-1-25,35.3,32.9,28.5,27.9,25.5,23.7,84,74,65,30.18,30.00,9,1,9,0.03
2012-1-26,38.0,31.7,26.4,29.4,23.0,17.7,95,71,45,30.20,29.97,6,0,6,0.01
2012-1-27,35.6,33.1,30.7,35.0,32.5,29.4,100,98,84,29.97,29.29,9,0,9,0.97
2012-1-28,42.1,35.9,30.7,30.9,27.6,25.0,84,72,52,29.97,29.58,8,1,8,0.07
2012-1-29,37.2,31.3,21.8,29.7,18.7,14.4,87,61,40,30.02,29.82,14,2,14,0.00
2012-1-30,31.9,25.7,17.0,25.5,17.4,11.3,92,72,46,30.27,29.90,10,1,10,0.00
2012-1-31,30.6,25.4,17.0,26.1,22.2,13.5,92,87,82,30.27,30.01,2,0,2,0.00
2012-2-1,44.9,33.3,26.4,39.4,30.0,24.4,97,88,70,30.02,29.73,10,0,10,0.02
2012-2-2,37.6,33.4,26.7,30.0,25.0,17.6,80,71,62,30.21,29.92,7,0,7,0.00
2012-2-3,32.4,26.1,18.8,21.8,15.7,10.4,77,65,45,30.39,30.21,8,0,8,0.00
2012-2-4,33.2,27.1,19.2,25.3,16.4,8.5,92,66,39,30.22,30.12,8,0,8,0.00
2012-2-5,31.2,21.6,11.4,16.3,11.3,6.4,85,65,41,30.17,30.04,6,0,6,0.00
2012-2-6,45.8,31.6,18.3,25.8,20.7,13.2,89,66,36,30.04,29.77,8,1,8,0.00
2012-2-7,38.3,31.4,22.1,28.2,23.0,10.3,87,72,58,30.26,29.84,6,0,7,0.00
2012-2-8,36.5,24.8,13.1,20.3,10.1,1.0,80,56,22,30.29,30.03,2,0,4,0.00
2012-2-9,40.6,30.1,22.5,22.8,18.1,14.2,80,62,37,30.07,29.94,6,0,6,0.00
2012-2-10,46.4,30.8,18.0,26.9,20.0,14.5,90,68,29,30.08,29.85,6,0,7,0.00
2012-2-11,36.8,31.3,19.1,26.1,21.8,7.5,83,68,55,29.85,29.57,10,1,10,0.00
2012-2-12,19.1,13.7,10.2,8.2,0.5,-3.5,64,55,46,29.86,29.62,10,1,10,0.00
2012-2-13,36.9,24.0,9.7,20.1,11.9,-1.4,78,60,43,29.94,29.75,9,0,9,0.00
2012-2-14,37.5,27.5,15.4,26.9,20.5,12.2,89,76,44,30.08,29.94,6,0,6,0.00
2012-2-15,39.6,32.6,29.1,30.0,26.8,22.8,89,79,61,30.23,30.08,2,0,2,0.00
2012-2-16,44.1,33.7,24.5,34.5,27.4,-99.9,98,83,54,30.27,29.99,4,-10,4,0.06
2012-2-17,44.9,36.9,29.1,39.6,29.7,20.0,100,77,51,29.99,29.83,7,0,7,0.01
2012-2-18,41.3,33.3,27.3,26.1,22.7,18.9,87,66,43,29.96,29.82,9,1,9,0.00
2012-2-19,37.9,29.6,23.5,24.0,18.9,14.1,84,65,45,30.07,29.96,9,0,9,0.00
2012-2-20,35.8,28.3,23.0,19.1,14.4,7.5,75,57,32,30.30,30.00,11,1,11,0.00
2012-2-21,41.5,30.2,18.0,30.6,19.3,14.4,95,67,37,30.32,29.83,7,0,7,0.00
2012-2-22,49.6,35.8,27.9,38.2,27.7,21.7,100,76,35,29.83,29.48,7,0,7,0.01
2012-2-23,43.1,33.6,27.0,40.3,26.7,-99.9,99,80,61,29.76,29.36,6,-10,6,0.08
2012-2-24,35.0,28.9,27.9,32.2,15.8,-99.9,98,78,73,29.77,29.19,2,-66,2,0.40
2012-2-25,37.2,32.5,26.6,32.2,26.0,16.3,99,78,57,29.80,29.15,15,2,15,0.14
2012-2-26,32.9,25.6,19.9,17.5,10.4,1.6,74,53,27,30.43,29.80,11,2,11,0.01
2012-2-27,39.2,27.5,15.1,26.6,18.2,10.8,88,69,45,30.45,30.01,6,0,6,0.04
2012-2-28,37.2,33.1,25.3,28.8,21.0,13.2,82,62,45,30.38,30.01,14,1,14,0.02
2012-2-29,30.4,27.8,24.8,26.9,22.4,15.6,94,80,60,30.38,29.97,4,0,4,0.00
2012-3-1,28.8,24.8,20.3,27.8,22.1,16.5,96,89,81,30.06,29.84,0,0,0,0.00
2012-3-2,29.4,24.2,18.9,25.3,19.9,15.4,92,84,72,30.16,29.97,2,0,2,0.01
2012-3-3,38.2,25.1,27.3,37.4,1.6,-99.9,98,74,68,29.97,29.34,9,-220,9,0.27
2012-3-4,41.5,32.6,24.4,26.4,22.9,18.2,90,69,39,29.64,29.50,7,0,7,0.16
2012-3-5,29.7,24.4,16.1,20.7,12.8,4.8,79,61,48,30.33,29.61,8,1,8,0.00
2012-3-6,34.1,20.7,7.0,15.6,6.7,-1.6,78,57,25,30.56,30.33,6,0,6,0.02
2012-3-7,55.7,34.2,14.3,31.1,21.6,10.4,86,63,32,30.54,30.17,6,0,6,0.11
2012-3-8,62.7,48.6,29.4,46.6,39.0,27.6,95,71,48,30.17,29.58,22,1,22,0.00
2012-3-9,56.2,35.9,27.9,45.9,24.5,14.4,91,65,37,30.11,29.59,10,0,10,0.01
2012-3-10,37.8,30.1,23.8,28.7,21.7,14.0,95,72,41,30.49,30.11,7,0,7,0.02
2012-3-11,55.4,37.3,22.9,30.3,23.5,16.1,91,62,29,30.47,30.20,8,0,8,0.00
2012-3-12,65.3,43.9,28.1,36.3,27.7,-99.9,92,62,26,30.25,30.07,4,-14,4,0.00
2012-3-13,69.6,50.5,39.5,51.7,42.5,33.2,97,76,51,30.08,29.83,2,0,6,0.00
2012-3-14,61.2,44.8,37.8,47.0,41.7,37.0,100,90,55,30.25,29.93,5,0,9,0.00
2012-3-15,43.8,38.2,34.1,37.3,34.4,31.7,99,87,69,30.38,30.24,4,0,4,0.00
2012-3-16,40.3,37.3,34.9,39.3,33.4,-99.9,98,89,75,30.34,30.09,2,-10,2,0.03
2012-3-17,51.1,40.6,31.8,42.5,37.2,31.0,100,88,69,30.36,30.16,2,0,2,0.00
2012-3-18,78.5,50.6,30.0,50.4,39.6,29.0,100,73,26,30.31,30.08,4,0,4,0.00
2012-3-19,78.3,54.9,37.9,50.4,44.1,36.2,100,72,34,30.27,30.09,9,0,9,0.00
2012-3-20,78.6,54.7,36.0,57.1,46.0,34.7,98,76,40,30.31,30.16,2,0,2,0.00
2012-3-21,83.0,61.3,42.2,54.4,46.3,29.4,98,67,16,30.32,30.16,9,0,9,0.00
2012-3-22,82.0,63.8,44.5,55.1,50.1,43.2,97,66,31,30.19,29.95,8,0,8,0.00
2012-3-23,71.3,61.2,52.6,53.2,36.5,20.5,80,44,19,30.12,29.99,9,1,9,0.00
2012-3-24,58.3,50.2,44.9,38.4,25.9,13.5,74,41,23,30.14,30.01,2,0,2,0.00
2012-3-25,45.5,42.4,37.2,41.8,38.9,34.5,99,88,68,30.01,29.71,0,0,0,0.07
2012-3-26,41.5,35.1,28.5,41.2,22.9,0.5,99,64,31,30.00,29.59,15,2,15,0.00
2012-3-27,44.5,31.9,22.5,14.8,2.1,-4.0,55,30,14,30.18,30.00,14,2,14,0.00
2012-3-28,44.2,36.5,30.0,36.3,26.6,10.4,90,68,43,30.14,29.55,2,0,2,0.00
2012-3-29,43.3,39.4,34.4,37.5,30.9,25.3,95,72,58,29.91,29.55,8,0,8,0.00
2012-3-30,47.9,37.4,28.8,26.2,16.9,6.8,78,47,20,30.04,29.91,9,0,9,0.00
2012-3-31,46.4,36.5,27.6,32.2,24.3,17.2,92,62,43,30.03,29.86,2,0,2,0.00
2012-4-1,53.3,37.4,22.2,39.1,27.9,18.0,97,74,27,29.88,29.62,6,0,6,0.03
2012-4-2,53.9,40.8,28.5,37.0,24.9,9.5,100,61,21,29.81,29.60,8,0,8,0.01
2012-4-3,56.5,41.0,25.8,23.2,14.3,7.5,72,38,17,29.85,29.71,9,0,9,0.00
2012-4-4,61.5,45.8,30.3,34.6,24.8,15.5,80,47,20,29.70,29.45,11,1,11,0.00
2012-4-5,48.2,38.6,27.9,32.8,24.2,19.8,85,58,36,29.88,29.62,7,0,7,0.00
2012-4-6,52.2,38.1,27.8,24.7,19.9,14.7,81,52,24,29.98,29.87,7,0,7,0.00
2012-4-7,56.5,40.3,26.6,26.2,20.9,16.6,75,49,26,30.00,29.91,8,0,8,0.00
2012-4-8,48.5,42.1,36.2,33.4,27.0,21.3,74,56,40,29.96,29.55,6,0,6,0.00
2012-4-9,50.4,43.1,29.7,34.9,31.6,25.3,85,65,47,29.57,29.43,4,0,6,0.00
2012-4-10,55.7,44.9,32.5,32.3,30.0,27.0,85,57,39,29.73,29.54,7,0,7,0.00
2012-4-11,58.7,39.0,27.3,42.3,22.7,-99.9,94,65,31,29.87,29.73,6,-56,6,0.04
2012-4-12,58.0,40.4,34.7,41.9,24.4,-99.9,98,72,39,30.08,29.87,9,-64,9,0.03
2012-4-13,63.7,45.0,27.8,39.4,28.7,18.8,99,62,19,30.14,29.99,10,0,10,0.00
2012-4-14,72.7,50.0,28.7,35.8,26.4,16.0,91,49,13,30.12,29.93,8,0,8,0.00
2012-4-15,78.3,60.9,39.5,53.4,44.3,34.1,84,57,33,29.95,29.84,8,0,8,0.00
2012-4-16,91.2,72.5,56.9,59.9,52.7,45.4,93,56,22,29.96,29.79,13,0,13,0.00
2012-4-17,80.7,66.3,53.2,54.2,38.9,21.8,88,43,14,30.12,29.82,10,1,10,0.00
2012-4-18,62.3,50.4,38.8,40.7,30.1,24.6,87,48,27,30.24,30.09,7,0,7,0.00
2012-4-19,75.8,51.6,31.6,43.4,34.3,22.8,95,62,15,30.10,29.91,7,0,7,0.00
2012-4-20,83.0,60.0,37.3,47.5,41.0,33.4,96,58,20,29.97,29.81,11,0,11,0.00
2012-4-21,79.6,64.7,52.8,53.5,49.3,44.1,80,60,35,29.84,29.60,10,0,10,0.00
2012-4-22,56.0,46.8,41.3,48.2,44.5,40.2,98,92,74,29.85,29.67,10,0,10,0.56
2012-4-23,57.6,46.8,38.9,57.6,46.3,38.1,100,98,92,29.73,29.26,11,0,11,0.89
2012-4-24,54.4,46.0,37.5,45.8,38.1,28.5,97,76,39,29.66,29.34,10,0,10,0.09
2012-4-25,58.0,43.6,31.5,40.6,34.9,29.3,100,75,34,29.84,29.66,14,0,14,0.01
2012-4-26,67.1,46.4,29.8,46.5,35.6,25.1,99,72,26,29.92,29.55,7,0,7,0.16
2012-4-27,52.9,44.5,35.3,47.0,36.0,22.0,100,74,50,30.00,29.48,13,1,13,0.17
2012-4-28,56.5,42.2,32.4,27.3,21.4,13.4,69,46,21,30.11,30.00,10,0,10,0.00
2012-4-29,58.9,42.4,28.1,26.1,18.7,7.8,85,45,16,30.20,30.01,9,0,9,0.00
2012-4-30,65.5,48.0,29.0,38.8,24.5,15.2,74,43,18,30.31,30.14,8,0,8,0.00
2012-5-1,50.4,40.4,41.6,44.0,29.1,-99.9,99,85,54,30.16,30.09,6,-80,6,0.37
2012-5-2,51.0,46.1,41.8,46.3,43.8,41.5,100,92,80,30.23,30.14,2,0,2,0.00
2012-5-3,52.8,47.7,43.8,50.0,44.9,-99.9,100,94,86,30.19,30.07,2,-10,2,0.13
2012-5-4,53.9,44.3,49.1,53.1,30.4,-99.9,100,86,94,30.09,29.92,2,-128,2,0.12
2012-5-5,70.3,47.5,49.8,55.5,20.8,-99.9,100,61,43,30.08,29.92,4,-197,4,0.00
2012-5-6,70.8,56.8,45.5,50.5,46.2,40.8,98,71,38,30.12,30.01,7,0,7,0.00
2012-5-7,74.0,55.1,37.2,47.8,40.8,34.5,98,65,26,30.14,30.02,7,0,7,0.00
2012-5-8,51.6,49.6,47.0,50.5,48.0,40.9,100,95,68,30.05,29.83,1,0,1,0.03
2012-5-9,60.7,52.5,48.8,60.1,48.0,-99.9,100,95,93,29.83,29.58,0,-35,0,0.00
2012-5-10,61.2,53.5,44.5,56.7,51.4,43.4,100,93,66,29.64,29.39,8,0,8,0.18
2012-5-11,63.4,50.3,40.2,43.4,39.2,29.2,100,70,34,30.03,29.64,11,0,11,0.00
2012-5-12,77.9,56.7,33.7,52.9,39.8,28.5,99,62,21,30.12,30.00,9,0,9,0.00
2012-5-13,82.6,62.6,44.9,58.0,49.7,42.8,96,68,27,30.14,30.00,6,0,6,0.00
2012-5-14,66.3,58.6,53.5,61.2,56.4,51.3,100,93,78,30.18,30.09,0,0,0,0.19
2012-5-15,69.4,61.3,57.8,62.4,59.0,56.8,100,93,67,30.12,29.95,8,0,8,0.39
2012-5-16,71.5,62.4,58.0,64.5,60.2,56.1,100,93,73,29.95,29.75,7,0,7,0.53
2012-5-17,66.8,55.9,43.8,58.3,44.6,31.7,100,71,28,30.15,29.85,9,0,9,0.00
2012-5-18,76.3,55.7,37.0,53.0,42.6,34.9,98,68,27,30.26,30.11,6,0,6,0.00
2012-5-19,83.4,61.9,42.2,59.2,47.6,39.8,97,67,25,30.19,30.07,4,0,4,0.00
2012-5-20,89.5,66.1,49.5,58.3,51.0,-99.9,97,66,27,30.27,30.14,4,-10,4,0.00
2012-5-21,83.2,62.9,47.3,61.7,53.8,45.4,96,76,33,30.28,30.07,8,0,8,0.00
2012-5-22,68.1,62.3,58.4,64.9,61.1,57.6,99,96,84,30.07,29.83,4,0,4,0.12
2012-5-23,81.8,67.3,59.5,66.2,62.2,59.5,100,85,51,30.03,29.84,1,0,1,0.00
2012-5-24,77.4,66.5,59.2,66.9,62.2,58.3,100,87,64,30.23,30.03,7,0,7,0.00
2012-5-25,71.5,64.0,59.5,66.9,62.3,58.8,99,95,82,30.24,30.06,4,0,4,0.08
2012-5-26,86.1,63.8,58.3,69.9,41.9,-99.9,100,65,23,30.09,30.00,7,-108,7,0.00
2012-5-27,83.8,67.1,52.8,61.0,55.4,48.8,97,70,36,30.18,29.99,1,0,1,0.00
2012-5-28,82.8,63.9,54.5,62.6,48.2,-99.9,93,65,43,30.03,29.87,6,-38,6,0.00
2012-5-29,64.8,61.1,57.8,62.5,58.8,54.6,100,92,78,29.93,29.70,2,0,2,0.47
2012-5-30,77.2,65.6,60.5,66.9,63.1,59.5,100,92,58,29.72,29.65,2,0,2,0.02
2012-5-31,78.5,65.8,54.8,60.4,54.9,46.6,99,72,35,29.93,29.69,6,0,6,0.00
2012-6-1,75.4,60.1,47.6,55.6,48.1,40.1,96,68,34,30.07,29.93,4,0,4,0.00
2012-6-2,57.0,48.3,51.7,57.0,32.7,-99.9,100,81,73,30.01,29.70,9,-114,9,1.64
2012-6-3,62.0,56.0,53.3,56.6,52.7,48.9,100,89,70,29.72,29.67,7,0,7,0.02
2012-6-4,53.3,51.0,49.1,51.9,49.5,47.0,100,95,84,29.82,29.65,7,0,7,0.19
2012-6-5,60.2,52.7,48.3,54.0,50.2,48.1,100,92,69,29.93,29.80,4,0,4,0.01
2012-6-6,67.6,56.4,49.5,55.4,51.4,48.2,100,85,53,29.98,29.91,9,0,9,0.00
2012-6-7,72.5,58.0,51.3,61.8,54.5,50.8,100,89,52,29.97,29.88,6,0,6,0.02
2012-6-8,78.5,62.0,51.6,64.1,55.9,51.3,100,83,44,29.93,29.71,6,0,6,0.03
2012-6-9,78.1,63.1,50.1,58.1,52.2,42.6,100,73,31,29.94,29.76,7,0,7,0.00
2012-6-10,85.3,65.0,48.2,62.1,51.1,44.8,97,66,28,30.19,29.94,2,0,2,0.00
2012-6-11,76.7,64.0,52.6,62.6,55.7,50.4,94,76,51,30.26,30.15,6,0,6,0.00
2012-6-12,78.8,65.2,54.2,65.2,59.1,52.5,99,82,52,30.15,29.92,7,0,7,0.06
2012-6-13,71.6,64.3,57.3,69.3,62.7,56.2,100,95,72,30.07,29.87,1,0,4,0.65
2012-6-14,79.6,64.4,52.6,63.5,56.4,52.1,100,78,43,30.27,30.07,6,0,6,0.00
2012-6-15,81.8,63.5,48.6,59.5,51.7,42.7,98,71,28,30.34,30.25,7,0,7,0.00
2012-6-16,79.6,61.6,49.9,64.0,54.1,48.5,98,79,48,30.36,30.26,7,0,7,0.00
2012-6-17,76.5,59.9,48.0,58.5,51.7,46.4,99,77,47,30.29,30.08,4,0,4,0.00
2012-6-18,70.3,58.0,50.4,58.0,52.5,48.3,96,83,58,30.16,30.08,6,0,6,0.00
2012-6-19,80.3,65.8,54.5,67.1,60.3,53.3,97,84,59,30.14,29.97,2,0,2,0.00
2012-6-20,94.0,78.0,63.4,77.2,69.4,62.2,98,78,43,29.99,29.83,7,0,7,0.00
2012-6-21,93.8,79.4,67.1,74.5,70.2,65.9,97,76,45,29.84,29.69,4,0,4,0.00
2012-6-22,93.4,77.8,65.2,73.7,67.1,60.4,97,73,39,29.75,29.66,4,0,4,0.00
2012-6-23,90.3,70.4,60.1,66.7,61.3,52.3,100,77,31,29.90,29.75,6,0,6,0.31
2012-6-24,83.2,67.7,55.1,63.2,57.3,46.1,100,75,29,29.93,29.83,7,0,7,0.00
2012-6-25,73.5,63.6,58.0,68.0,62.4,57.7,99,96,74,29.83,29.62,2,0,2,0.19
2012-6-26,67.4,60.6,54.8,59.7,56.0,52.3,100,85,71,29.65,29.55,7,0,7,0.01
2012-6-27,74.6,63.9,58.0,61.2,55.9,52.8,92,76,58,29.70,29.51,9,0,9,0.00
2012-6-28,82.0,68.6,56.6,64.5,58.7,54.1,94,73,43,29.72,29.65,7,0,7,0.00
2012-6-29,88.8,70.3,56.9,74.0,62.4,54.2,100,79,43,29.69,29.49,4,0,4,0.11
2012-6-30,87.8,72.7,55.4,67.8,59.6,54.3,97,67,37,29.68,29.59,8,0,8,0.00
2012-7-1,91.0,74.4,60.9,65.7,60.6,49.2,95,67,25,29.81,29.67,7,0,7,0.00
2012-7-2,83.4,71.4,62.6,65.7,60.9,52.7,92,72,41,29.89,29.80,7,0,7,0.01
2012-7-3,84.0,68.4,56.9,64.5,58.7,48.6,100,76,33,29.91,29.81,7,0,7,0.04
2012-7-4,85.7,70.9,60.7,74.3,66.0,58.5,100,86,56,29.82,29.63,8,0,8,0.47
2012-7-5,81.6,70.2,62.6,67.8,64.5,61.3,100,84,56,29.84,29.67,6,0,6,0.00
2012-7-6,86.5,71.5,57.8,70.1,63.7,57.0,99,79,47,29.90,29.78,2,0,2,0.00
2012-7-7,79.2,72.0,66.0,72.3,67.8,64.2,97,87,68,29.79,29.70,2,0,2,0.00
2012-7-8,85.1,71.6,60.9,64.9,59.6,50.0,98,70,37,29.86,29.76,6,0,6,0.00
2012-7-9,82.0,66.2,52.2,57.0,51.1,42.6,95,63,27,29.98,29.86,6,0,6,0.00
2012-7-10,84.0,65.4,48.5,59.2,51.6,42.3,93,66,25,30.07,29.98,4,0,4,0.00
2012-7-11,88.4,69.4,52.5,60.9,54.8,47.6,95,65,27,30.17,30.07,2,0,2,0.00
2012-7-12,91.6,72.4,56.6,68.2,58.7,47.8,96,68,23,30.17,30.05,2,0,2,0.00
2012-7-13,93.2,75.5,60.7,70.0,64.4,59.0,96,72,33,30.17,30.05,2,0,2,0.00
2012-7-14,92.7,77.6,67.8,70.2,65.3,59.1,94,69,34,30.13,30.02,4,0,4,0.00
2012-7-15,91.4,74.7,62.0,71.8,66.2,60.2,99,78,38,30.07,29.84,4,0,4,0.43
2012-7-16,87.6,77.9,68.4,73.7,70.4,66.8,100,79,55,29.84,29.71,4,0,4,0.01
2012-7-17,93.2,77.7,66.1,75.8,69.4,64.9,98,79,45,29.76,29.58,10,0,10,0.00
2012-7-19,81.8,71.6,58.4,59.1,55.1,49.8,92,58,35,30.02,29.90,4,0,4,0.00
2012-7-20,77.6,62.0,54.5,57.9,54.5,51.1,95,78,44,30.09,30.02,1,0,1,0.00
2012-7-21,84.1,66.6,52.0,62.4,53.6,47.9,97,69,31,30.10,30.01,0,0,0,0.00
2012-7-22,86.5,72.9,57.2,66.1,60.4,52.5,92,67,40,30.10,30.00,2,0,2,0.00
2012-7-23,86.3,74.5,66.3,70.5,66.1,61.1,98,76,54,30.04,29.74,1,0,1,0.05
2012-7-24,84.5,74.0,62.6,74.3,65.6,53.8,100,77,48,29.70,29.51,7,0,7,3.51
2012-7-25,81.8,67.8,56.7,57.6,54.0,49.3,91,64,33,29.81,29.70,9,0,9,1.05
2012-7-26,75.3,66.4,60.7,66.1,60.5,-99.9,99,83,70,29.77,29.60,2,0,2,0.15
2012-7-27,73.7,67.9,64.5,70.5,66.8,64.2,100,96,80,29.89,29.60,0,0,0,0.01
2012-7-28,80.9,69.8,64.8,70.9,67.1,64.8,100,92,66,29.98,29.89,2,0,2,0.05
2012-7-29,72.8,66.7,60.9,68.2,65.1,60.3,100,95,77,30.07,29.94,2,0,2,0.18
2012-7-30,85.3,69.7,58.9,70.0,63.7,58.9,100,84,52,30.11,30.01,2,0,2,0.00
2012-7-31,84.5,69.9,58.6,65.7,61.9,57.5,99,79,46,30.08,29.90,6,0,6,0.00
2012-8-1,84.0,72.6,65.3,69.8,66.7,63.7,96,83,53,29.91,29.79,2,0,2,0.00
2012-8-2,88.8,73.9,66.1,72.9,65.3,-99.9,99,79,44,29.85,29.78,2,-11,2,0.00
2012-8-3,90.5,75.3,63.2,71.4,66.7,61.7,97,77,44,30.05,29.85,8,0,8,0.00
2012-8-4,94.3,75.5,65.6,72.8,68.1,64.4,98,81,43,30.19,30.05,7,0,7,0.00
2012-8-5,89.9,73.2,64.2,74.1,71.2,63.3,100,94,54,30.17,29.86,1,0,1,0.56
2012-8-6,79.6,70.3,60.4,71.8,64.5,57.8,100,84,51,29.98,29.86,4,0,4,0.01
2012-8-7,83.8,68.0,54.5,65.5,59.7,53.7,99,78,40,30.01,29.90,2,0,2,0.00
2012-8-8,88.2,71.0,55.7,67.8,59.8,52.9,100,72,31,29.98,29.89,4,0,4,0.00
2012-8-9,87.6,76.4,67.6,73.1,68.8,65.0,98,79,55,29.94,29.84,0,0,0,0.00
2012-8-10,83.0,71.9,67.6,72.4,69.1,66.7,100,92,68,29.89,29.78,6,0,6,1.74
2012-8-11,80.3,71.1,65.6,74.5,69.7,65.6,100,96,75,29.91,29.78,2,0,2,0.76
2012-8-12,84.0,71.6,65.0,76.4,69.6,64.4,100,94,66,29.91,29.80,2,0,2,0.08
2012-8-13,82.8,70.6,61.5,70.3,65.4,61.5,100,85,54,29.93,29.86,2,0,2,0.00
2012-8-14,82.4,69.9,59.8,68.1,64.5,59.5,100,85,55,29.94,29.86,0,0,0,0.00
2012-8-15,82.6,70.9,64.5,71.0,67.2,63.8,100,89,61,29.90,29.82,4,0,4,0.10
2012-8-16,80.7,70.0,62.0,68.5,64.9,59.1,100,86,53,29.85,29.76,7,0,7,0.08
2012-8-17,85.3,75.5,62.4,71.5,67.4,61.5,100,78,54,29.81,29.69,4,0,4,0.08
2012-8-18,78.8,67.3,55.6,67.6,62.0,53.9,100,85,48,29.89,29.79,2,0,2,0.05
2012-8-19,74.9,61.7,49.1,62.2,55.4,48.3,99,82,50,29.98,29.87,2,0,2,0.00
2012-8-20,77.4,63.1,50.2,63.2,56.9,49.6,99,82,46,29.92,29.81,1,0,1,0.00
2012-8-21,80.3,67.3,58.1,64.3,59.7,50.8,100,79,39,30.07,29.87,2,0,2,0.01
2012-8-22,82.8,64.5,50.8,65.3,56.5,48.9,98,79,33,30.14,30.06,6,0,6,0.00
2012-8-23,84.3,67.1,53.9,67.1,59.6,53.0,99,80,40,30.12,30.04,2,0,2,0.00
2012-8-24,85.5,69.5,56.2,69.1,61.6,54.3,98,78,43,30.19,30.08,2,0,2,0.00
2012-8-25,81.8,69.2,60.4,68.0,63.2,57.8,98,83,55,30.31,30.19,4,0,4,0.00
2012-8-26,86.1,68.5,56.3,67.2,61.4,55.2,98,80,51,30.33,30.19,4,0,4,0.00
2012-8-27,87.2,70.4,56.2,68.4,62.5,54.0,99,78,49,30.19,29.86,4,0,4,0.00
2012-8-28,83.2,71.4,59.3,72.3,65.7,56.1,100,83,55,29.88,29.69,4,0,4,0.29
2012-8-29,76.5,61.4,50.2,56.8,51.8,45.4,96,74,41,29.96,29.87,4,0,4,0.00
2012-8-30,80.7,63.7,47.6,60.8,54.0,46.2,98,74,40,30.01,29.90,7,0,7,0.00
2012-8-31,82.0,70.1,56.2,67.5,59.9,53.6,95,71,50,29.92,29.74,4,0,4,0.00
2012-9-1,82.2,68.8,56.3,67.3,62.2,54.3,97,81,53,30.10,29.82,6,0,6,0.00
2012-9-2,79.8,64.1,55.9,61.1,57.1,54.0,96,80,50,30.15,30.05,4,0,4,0.00
2012-9-3,79.2,66.1,59.0,61.6,57.9,55.3,93,77,47,30.22,30.09,4,0,4,0.00
2012-9-4,65.5,62.5,59.0,65.5,62.1,56.7,100,98,92,30.12,29.84,0,0,0,0.66
2012-9-5,76.7,68.6,64.2,72.1,66.5,63.7,100,93,73,29.84,29.65,7,0,7,0.19
2012-9-6,75.6,68.5,63.7,69.8,66.5,63.4,100,94,75,29.89,29.80,0,0,0,0.15
2012-9-7,82.4,68.7,58.9,69.7,64.4,58.4,100,88,48,29.90,29.82,0,0,0,0.00
2012-9-8,83.2,69.7,60.9,72.5,66.2,60.9,100,90,58,29.86,29.55,10,0,10,0.49
2012-9-9,72.3,61.5,54.4,60.9,56.9,51.8,100,87,49,29.85,29.67,2,0,2,0.03
2012-9-10,64.0,56.1,48.2,53.5,49.3,42.6,98,79,54,30.05,29.85,8,0,8,0.00
2012-9-11,71.5,55.3,43.5,54.6,46.6,41.6,96,76,38,30.24,30.05,4,0,4,0.00
2012-9-12,76.5,57.5,42.3,60.2,50.5,41.2,99,81,39,30.35,30.24,6,0,6,0.00
2012-9-13,81.4,62.0,47.3,63.3,55.4,46.5,100,82,39,30.34,30.21,2,0,2,0.00
2012-9-14,83.2,64.2,50.8,65.0,58.0,50.2,100,82,49,30.23,30.02,1,0,1,0.00
2012-9-15,70.1,59.3,46.5,59.3,52.1,44.5,100,79,44,30.04,29.96,6,0,6,0.02
2012-9-16,66.0,51.6,40.6,48.4,42.6,36.9,100,75,37,30.08,29.97,6,0,6,0.00
2012-9-17,74.2,54.1,36.9,58.2,47.3,35.6,98,80,44,30.10,29.97,4,0,4,0.00
2012-9-18,68.1,58.9,47.4,68.1,58.4,46.8,100,98,92,30.01,29.61,9,0,9,1.13
2012-9-19,67.8,58.6,43.6,67.8,52.3,42.2,100,82,47,30.20,29.61,7,0,7,0.02
2012-9-20,43.6,40.3,37.9,42.5,39.5,37.4,99,97,95,30.29,30.20,0,0,0,0.00
2012-9-21,67.4,56.5,44.5,54.3,49.9,44.2,99,80,54,30.17,30.06,4,0,4,0.00
2012-9-22,72.5,59.0,46.7,62.0,54.9,45.7,99,88,62,30.07,29.78,6,0,6,0.00
2012-9-23,64.8,56.5,43.8,61.1,50.9,41.8,100,84,46,30.07,29.76,8,0,8,0.03
2012-9-24,61.2,47.3,36.5,48.6,42.0,35.5,99,84,48,30.13,30.03,4,0,4,0.00
2012-9-25,68.4,50.1,33.8,50.1,42.9,33.0,100,80,40,30.12,30.06,4,0,4,0.00
2012-9-26,66.9,58.3,50.2,61.9,56.1,48.5,100,93,76,30.09,29.95,4,0,4,0.01
2012-9-27,63.4,55.1,42.3,59.6,48.9,41.2,100,82,48,30.25,29.97,6,0,6,0.01
2012-9-28,51.4,46.6,39.2,51.4,46.3,38.2,100,99,96,30.26,30.04,2,0,2,1.13
2012-9-29,56.6,52.6,49.6,55.6,52.2,49.6,100,99,91,30.04,29.86,2,0,2,0.11
2012-9-30,57.2,53.8,48.9,56.7,53.7,48.9,100,99,95,29.91,29.65,1,0,1,0.11
2012-10-1,60.2,54.5,48.0,56.6,53.0,48.0,100,95,79,29.89,29.62,8,0,8,0.02
2012-10-2,64.5,57.7,51.1,60.1,55.4,50.5,100,92,75,30.04,29.89,2,0,2,0.02
2012-10-3,62.9,60.3,58.6,62.6,60.0,57.9,100,99,96,30.15,30.03,1,0,1,0.21
2012-10-4,61.2,59.9,58.9,61.2,59.8,58.9,100,100,99,30.16,30.01,2,0,2,0.15
2012-10-5,72.7,61.8,56.0,63.6,58.8,55.0,100,91,55,30.01,29.88,2,0,2,0.00
2012-10-6,73.7,58.8,47.3,62.7,55.5,43.0,100,89,62,29.89,29.63,7,0,7,0.07
2012-10-7,53.6,48.1,40.2,46.9,42.3,37.8,100,82,59,30.05,29.89,2,0,2,0.05
2012-10-8,53.6,46.2,40.5,46.1,42.7,38.4,100,88,60,30.32,30.03,6,0,6,0.03
2012-10-9,55.4,46.7,38.6,47.9,43.4,37.3,100,89,70,30.32,30.14,6,0,6,0.00
2012-10-10,54.4,50.2,46.7,54.4,49.3,44.9,100,97,90,30.15,29.69,6,0,6,0.22
2012-10-11,48.2,44.9,43.1,46.9,40.1,35.6,96,83,72,30.08,29.76,6,0,6,0.00
2012-10-12,50.1,41.7,32.2,41.5,34.0,23.2,97,76,45,30.35,29.94,4,0,4,0.00
2012-10-13,49.4,37.8,26.4,35.4,27.5,23.0,93,69,36,30.45,30.28,2,0,2,0.00
2012-10-14,55.3,46.3,39.2,55.3,45.5,34.8,100,97,80,30.27,29.89,0,0,0,0.35
2012-10-15,68.6,55.5,43.1,62.0,53.6,42.9,100,94,74,29.89,29.57,1,0,6,0.11
2012-10-16,59.0,47.1,34.9,58.7,41.5,32.8,100,82,57,29.86,29.55,8,1,10,0.00
2012-10-17,59.3,42.9,30.3,42.3,35.6,28.8,100,78,40,29.99,29.86,4,0,4,3.22
2012-10-18,63.7,47.6,35.5,47.8,40.3,33.5,100,79,37,30.11,29.99,6,0,6,5.97
2012-10-19,58.9,53.7,43.2,58.9,53.6,41.3,100,99,94,30.09,29.71,9,0,9,3.26
2012-10-20,70.8,60.7,50.2,64.7,56.9,46.2,100,89,51,29.72,29.56,4,0,4,0.01
2012-10-21,59.9,49.6,37.9,46.7,42.5,36.6,100,78,48,29.85,29.69,9,1,9,0.00
2012-10-22,61.6,49.9,39.3,45.4,41.5,37.1,99,75,45,29.97,29.84,9,0,9,0.00
2012-10-23,61.6,47.7,39.1,45.0,41.1,36.4,100,80,47,30.11,29.97,6,0,6,0.00
2012-10-24,59.9,43.3,31.0,43.3,34.4,27.6,100,75,30,30.22,30.09,4,0,4,0.00
2012-10-25,62.1,49.2,39.5,46.3,41.0,36.5,94,76,42,30.31,30.20,7,0,7,0.00
2012-10-26,64.3,51.3,43.1,54.1,47.3,40.7,97,87,66,30.24,30.09,4,0,4,0.00
2012-10-27,61.3,51.8,44.1,54.3,48.8,43.0,100,90,73,30.12,30.00,1,0,1,0.00
2012-10-28,54.2,51.3,45.2,50.6,45.8,40.9,90,82,73,30.03,29.85,9,0,9,0.00
2012-10-29,59.8,54.3,49.5,59.2,52.9,46.7,99,95,88,29.85,29.25,24,4,24,0.97
2012-10-30,66.3,60.0,53.1,61.1,58.0,52.0,100,94,74,29.56,29.31,10,1,10,1.47
2012-10-31,55.3,51.5,46.2,55.3,49.4,44.5,100,93,73,29.53,29.44,4,0,4,0.02
2012-11-1,51.6,46.1,43.5,44.6,41.3,37.5,94,84,64,29.53,29.47,4,0,4,0.00
2012-11-2,50.4,44.8,40.2,42.0,38.3,34.7,96,79,59,29.60,29.50,6,0,6,0.01
2012-11-3,49.4,43.6,41.5,36.2,34.1,30.7,79,69,53,29.79,29.59,8,1,8,0.00
2012-11-4,46.1,40.3,35.3,34.6,31.3,25.2,86,70,59,29.95,29.78,7,1,7,0.00
2012-11-5,39.1,34.5,26.0,26.4,22.1,17.4,72,60,48,30.12,29.95,8,0,8,0.00
2012-11-6,38.2,27.8,20.5,21.4,17.0,11.2,91,66,34,30.23,30.12,4,0,4,0.00
2012-11-7,37.2,30.1,20.0,20.8,16.2,8.9,91,59,32,30.22,29.86,13,0,13,0.00
2012-11-8,37.6,35.0,32.1,34.0,31.0,20.7,98,86,57,29.86,29.72,10,1,10,0.01
2012-11-9,48.3,40.3,34.1,31.3,28.3,20.7,81,63,35,30.06,29.78,9,1,9,0.00
2012-11-10,49.4,39.9,30.7,33.4,28.5,22.1,86,66,35,30.45,30.06,7,0,7,0.00
2012-11-11,58.0,42.1,30.7,44.1,34.9,25.6,92,76,57,30.48,30.35,6,0,6,0.00
2012-11-12,66.0,47.0,30.6,54.4,40.5,29.1,100,81,43,30.43,30.16,10,0,10,0.00
2012-11-13,60.4,45.7,29.5,57.1,42.4,27.2,97,88,79,30.43,30.03,7,0,7,0.19
2012-11-14,43.2,32.5,25.4,29.6,25.2,21.8,97,77,45,30.57,30.43,7,0,7,0.00
2012-11-15,42.1,30.6,21.4,27.7,23.8,18.9,95,77,49,30.51,30.31,2,0,2,0.00
2012-11-16,42.1,31.0,24.4,28.3,24.8,22.4,96,79,51,30.44,30.29,2,0,2,0.00
2012-11-17,44.6,32.2,24.8,31.0,24.9,21.1,97,76,48,30.67,30.44,4,0,4,0.00
2012-11-18,43.1,30.1,21.3,28.8,23.5,18.6,95,78,54,30.75,30.64,2,0,2,0.00
2012-11-19,43.1,29.0,19.5,29.7,23.0,16.8,94,79,55,30.64,30.28,2,0,2,0.00
2012-11-20,45.4,30.7,20.2,28.4,23.2,17.5,96,76,41,30.28,30.13,1,0,1,0.00
2012-11-21,45.4,34.1,27.0,33.4,27.6,24.2,92,78,50,30.28,30.17,2,0,2,0.00
2012-11-22,51.0,33.7,23.6,37.4,28.6,21.6,96,83,57,30.29,30.11,2,0,2,0.00
2012-11-23,56.3,37.5,25.1,38.8,31.5,23.1,98,81,40,30.11,29.59,7,0,7,0.00
2012-11-24,42.5,37.5,29.4,40.6,26.2,18.1,98,65,43,29.62,29.50,9,2,9,0.01
2012-11-25,35.6,30.6,27.6,22.4,17.4,6.6,75,59,31,29.81,29.61,10,1,10,0.00
2012-11-26,41.3,31.7,23.9,27.1,22.0,18.7,89,68,42,30.22,29.81,8,0,8,0.00
2012-11-27,36.5,28.1,20.2,28.3,23.1,16.5,90,81,68,30.30,30.22,1,0,1,0.00
2012-11-28,35.9,27.6,20.0,25.2,21.6,17.3,94,79,56,30.24,30.09,2,0,2,0.00
2012-11-29,40.3,32.2,21.9,28.0,21.2,16.6,88,66,41,30.22,30.08,8,0,8,0.00
2012-11-30,32.4,25.9,21.3,25.8,5.4,-6.7,81,44,22,30.57,30.20,6,0,7,0.00
2012-12-1,26.6,24.7,22.4,25.4,18.8,1.6,95,80,38,30.65,30.51,1,0,1,0.00
2012-12-2,41.2,31.3,26.6,41.2,30.8,25.4,100,98,95,30.51,29.98,4,0,4,0.00
2012-12-3,50.1,43.0,38.0,47.1,42.1,38.0,100,97,71,30.14,29.96,7,0,7,0.00
2012-12-4,36.2,35.7,35.2,36.2,35.7,35.2,100,100,100,30.02,29.91,1,0,1,0.00
2012-12-5,48.6,39.5,29.4,46.0,33.8,17.3,100,81,59,30.13,29.80,10,1,10,0.00
2012-12-6,35.9,28.7,21.6,20.5,18.3,16.0,86,66,47,30.31,30.13,7,0,7,0.00
2012-12-7,38.2,28.5,20.2,31.6,24.8,17.3,97,86,68,30.27,30.03,1,0,1,0.00
2012-12-8,36.2,34.1,31.8,36.2,33.9,31.0,100,99,97,30.03,29.86,1,0,1,0.02
2012-12-9,41.6,34.2,29.5,37.2,31.0,26.1,100,89,60,30.29,29.92,4,0,4,0.00
2012-12-10,38.5,35.5,31.6,38.5,35.4,30.3,100,99,95,30.16,29.48,4,0,4,0.22
2012-12-11,40.1,36.9,29.8,39.3,33.3,23.6,100,87,71,30.13,29.55,9,0,9,0.00
2012-12-12,37.6,29.3,23.0,25.4,22.6,20.2,93,77,55,30.41,30.13,4,0,4,0.00
2012-12-13,38.5,27.1,19.4,28.2,22.0,16.7,96,82,56,30.46,30.26,2,0,2,0.00
2012-12-14,42.6,30.1,18.4,28.6,23.2,15.6,96,77,44,30.26,30.03,8,0,8,0.00
2012-12-15,37.0,29.8,21.4,28.5,17.1,6.7,83,61,30,30.34,30.14,6,0,6,0.00
2012-12-16,24.4,23.7,23.0,22.7,14.2,4.3,93,69,43,30.34,30.14,4,0,4,0.00
2012-12-17,32.1,28.0,24.4,31.9,26.9,22.7,99,96,93,30.13,29.85,1,0,1,0.00
2012-12-18,38.0,34.7,31.9,38.0,34.7,31.7,100,100,99,29.85,29.42,1,0,1,0.00
2012-12-19,39.5,36.4,34.3,36.3,32.3,29.1,100,86,72,30.03,29.43,13,1,13,0.00
2012-12-20,37.5,33.7,27.8,30.7,28.6,25.1,96,82,68,30.20,30.02,7,0,7,0.00
2012-12-21,49.6,38.1,32.2,49.6,37.3,30.2,100,97,88,30.01,29.00,16,2,16,0.00
2012-12-22,35.0,31.3,25.7,34.1,24.8,16.3,98,77,61,29.60,29.15,10,1,10,0.00
2012-12-23,35.3,28.5,20.6,23.8,18.0,12.7,76,65,46,29.80,29.60,8,0,8,0.00
2012-12-24,32.9,29.3,24.4,24.3,18.6,14.2,79,65,47,30.05,29.79,7,0,7,0.00
2012-12-25,32.1,25.3,21.3,25.2,20.1,13.5,90,81,71,30.23,29.99,4,0,4,0.00
2012-12-26,31.3,23.7,12.9,24.4,14.8,7.9,91,69,49,30.32,29.97,11,0,11,0.00
2012-12-27,32.2,29.1,25.8,30.1,27.4,22.7,96,93,88,29.97,29.41,8,0,8,0.00
2012-12-28,30.1,26.1,23.0,24.4,21.7,18.9,88,83,77,30.00,29.63,9,1,9,0.00
2012-12-29,27.3,24.1,18.6,25.1,21.5,15.6,95,89,80,30.00,29.48,4,0,4,0.00
2012-12-30,26.4,22.1,17.5,25.4,15.5,6.8,96,76,59,29.95,29.46,14,2,14,0.00
2012-12-31,32.1,24.7,15.6,24.5,17.3,7.0,84,73,62,29.97,29.70,9,1,9,0.00
2013-1-1,32.1,25.0,12.1,27.0,15.3,2.6,84,67,51,29.91,29.64,10,1,10,0.00